Portada
METAR-TAF:

METAR-TAF

Aeropuertos :

Fuerteventura, España

Aeropuerto de Fuerteventura

latitud: 28-27N, longitud: 013-52W, altitud: 22 m

Observación

El informe se hizo hace 16 minutos, a las 14:00 UTC
Viento 8 kt del norte, variando entre norte-noroeste y noreste
Temperatura 21°C
Humedad 60%
Presión 1017 hPa
Visibilidad 10 km o más
Cielo nuboso a una altura de 4000 ft

METAR: GCFV 241400Z 01008KT 330V050 9999 BKN040 21/13 Q1017

Hora: 15:16 (14:16 UTC)

Pronóstico

El informe se hizo hace 6 horas y 16 minutos, a las 08:00 UTC
Pronóstico válido del 24 a las 09 UTC al 25 a las 09 UTC
Viento 8 kt del norte-noroeste
Visibilidad 10 km o más
Nubes dispersas a una altura de 3000 ft
Temporalmente
del 24 a las 10 UTC al 24 a las 17 UTC
Viento 10 kt del norte-noreste

TAF: GCFV 240800Z 2409/2509 33008KT 9999 SCT030 TX23/2414Z TN18/2505Z TEMPO 2410/2417 03010KT

Observaciones y pronósticos meteorológicos de más de 4000 aeropuertos (mensajes METAR y TAF).

Los puntos amarillos y rojos representan las estaciones disponibles.

Ponga el ratón en el punto deseado para ver el nombre de la estación.

Haga clic para ver las observaciones y los pronósticos meteorológicos.

Para cambiar el mapa : haga clic en los botones verdes con una cruz de color negro para hacer un zoom, en el botón verde con un guión para alejar o en las flechas verdes para mapas adyacentes.


METAR-TAF: